sensor_id;sensor_type;location;lat;lon;timestamp;P1;durP1;ratioP1;P2;durP2;ratioP2
66721;SDS011;53633;49.932;10.884;2023-04-23T00:02:14;3.97;;;1.65;;
66721;SDS011;53633;49.932;10.884;2023-04-23T00:04:49;5.82;;;1.83;;
66721;SDS011;53633;49.932;10.884;2023-04-23T00:07:18;7.53;;;1.70;;
66721;SDS011;53633;49.932;10.884;2023-04-23T00:09:47;4.35;;;1.55;;
66721;SDS011;53633;49.932;10.884;2023-04-23T00:12:17;6.43;;;1.50;;
66721;SDS011;53633;49.932;10.884;2023-04-23T00:14:44;4.38;;;1.65;;
66721;SDS011;53633;49.932;10.884;2023-04-23T00:17:11;5.30;;;1.90;;
66721;SDS011;53633;49.932;10.884;2023-04-23T00:19:38;6.53;;;1.73;;
66721;SDS011;53633;49.932;10.884;2023-04-23T00:22:05;6.25;;;1.40;;
66721;SDS011;53633;49.932;10.884;2023-04-23T00:24:31;5.82;;;1.67;;
66721;SDS011;53633;49.932;10.884;2023-04-23T00:26:59;5.50;;;1.75;;
66721;SDS011;53633;49.932;10.884;2023-04-23T00:29:26;5.10;;;1.40;;
66721;SDS011;53633;49.932;10.884;2023-04-23T00:31:53;5.07;;;2.03;;
66721;SDS011;53633;49.932;10.884;2023-04-23T00:34:19;4.50;;;1.60;;
66721;SDS011;53633;49.932;10.884;2023-04-23T00:36:46;4.60;;;1.42;;
66721;SDS011;53633;49.932;10.884;2023-04-23T00:39:13;5.25;;;1.60;;
66721;SDS011;53633;49.932;10.884;2023-04-23T00:41:39;6.10;;;1.80;;
66721;SDS011;53633;49.932;10.884;2023-04-23T00:44:08;5.70;;;1.67;;
66721;SDS011;53633;49.932;10.884;2023-04-23T00:46:34;5.75;;;1.70;;
66721;SDS011;53633;49.932;10.884;2023-04-23T00:49:01;4.72;;;2.15;;
66721;SDS011;53633;49.932;10.884;2023-04-23T00:51:28;4.95;;;1.60;;
66721;SDS011;53633;49.932;10.884;2023-04-23T00:53:55;4.95;;;1.90;;
66721;SDS011;53633;49.932;10.884;2023-04-23T00:56:22;5.00;;;1.90;;
66721;SDS011;53633;49.932;10.884;2023-04-23T00:58:49;6.32;;;1.55;;
66721;SDS011;53633;49.932;10.884;2023-04-23T01:01:18;5.35;;;1.65;;
66721;SDS011;53633;49.932;10.884;2023-04-23T01:03:45;4.88;;;1.70;;
66721;SDS011;53633;49.932;10.884;2023-04-23T01:06:15;4.70;;;1.35;;
66721;SDS011;53633;49.932;10.884;2023-04-23T01:08:41;4.27;;;1.67;;
66721;SDS011;53633;49.932;10.884;2023-04-23T01:11:09;5.50;;;1.52;;
66721;SDS011;53633;49.932;10.884;2023-04-23T01:13:38;6.85;;;1.70;;
66721;SDS011;53633;49.932;10.884;2023-04-23T01:16:06;6.50;;;1.73;;
66721;SDS011;53633;49.932;10.884;2023-04-23T01:18:34;5.20;;;1.30;;
66721;SDS011;53633;49.932;10.884;2023-04-23T01:21:01;9.53;;;1.47;;
66721;SDS011;53633;49.932;10.884;2023-04-23T01:23:29;5.63;;;1.10;;
66721;SDS011;53633;49.932;10.884;2023-04-23T01:25:56;5.32;;;1.80;;
66721;SDS011;53633;49.932;10.884;2023-04-23T01:28:23;3.65;;;1.40;;
66721;SDS011;53633;49.932;10.884;2023-04-23T01:30:50;4.20;;;1.33;;
66721;SDS011;53633;49.932;10.884;2023-04-23T01:33:17;6.10;;;1.73;;
66721;SDS011;53633;49.932;10.884;2023-04-23T01:35:44;6.00;;;1.63;;
66721;SDS011;53633;49.932;10.884;2023-04-23T01:38:12;5.47;;;1.70;;
66721;SDS011;53633;49.932;10.884;2023-04-23T01:40:41;5.95;;;1.70;;
66721;SDS011;53633;49.932;10.884;2023-04-23T01:43:07;5.35;;;1.52;;
66721;SDS011;53633;49.932;10.884;2023-04-23T01:45:34;4.57;;;2.03;;
66721;SDS011;53633;49.932;10.884;2023-04-23T01:48:01;6.15;;;1.60;;
66721;SDS011;53633;49.932;10.884;2023-04-23T01:50:28;5.00;;;1.40;;
66721;SDS011;53633;49.932;10.884;2023-04-23T01:52:55;7.18;;;1.80;;
66721;SDS011;53633;49.932;10.884;2023-04-23T01:55:22;4.38;;;1.50;;
66721;SDS011;53633;49.932;10.884;2023-04-23T01:57:50;6.70;;;1.70;;
66721;SDS011;53633;49.932;10.884;2023-04-23T02:00:16;5.55;;;2.10;;
66721;SDS011;53633;49.932;10.884;2023-04-23T02:02:43;5.55;;;1.90;;
66721;SDS011;53633;49.932;10.884;2023-04-23T02:05:11;7.20;;;2.28;;
66721;SDS011;53633;49.932;10.884;2023-04-23T02:07:39;4.70;;;2.08;;
66721;SDS011;53633;49.932;10.884;2023-04-23T02:10:06;6.40;;;2.17;;
66721;SDS011;53633;49.932;10.884;2023-04-23T02:12:34;5.43;;;1.80;;
66721;SDS011;53633;49.932;10.884;2023-04-23T02:15:03;4.22;;;1.77;;
66721;SDS011;53633;49.932;10.884;2023-04-23T02:17:31;4.82;;;1.70;;
66721;SDS011;53633;49.932;10.884;2023-04-23T02:19:57;6.45;;;1.90;;
66721;SDS011;53633;49.932;10.884;2023-04-23T02:22:24;6.00;;;1.83;;
66721;SDS011;53633;49.932;10.884;2023-04-23T02:24:51;6.13;;;2.00;;
66721;SDS011;53633;49.932;10.884;2023-04-23T02:27:18;6.30;;;1.80;;
66721;SDS011;53633;49.932;10.884;2023-04-23T02:29:45;5.32;;;2.00;;
66721;SDS011;53633;49.932;10.884;2023-04-23T02:32:13;4.97;;;1.85;;
66721;SDS011;53633;49.932;10.884;2023-04-23T02:34:40;4.37;;;1.73;;
66721;SDS011;53633;49.932;10.884;2023-04-23T02:37:07;5.88;;;2.10;;
66721;SDS011;53633;49.932;10.884;2023-04-23T02:39:34;5.13;;;2.10;;
66721;SDS011;53633;49.932;10.884;2023-04-23T02:42:01;4.93;;;1.73;;
66721;SDS011;53633;49.932;10.884;2023-04-23T02:44:28;6.35;;;2.00;;
66721;SDS011;53633;49.932;10.884;2023-04-23T02:46:54;6.90;;;2.33;;
66721;SDS011;53633;49.932;10.884;2023-04-23T02:49:22;5.25;;;1.83;;
66721;SDS011;53633;49.932;10.884;2023-04-23T02:51:49;6.40;;;2.08;;
66721;SDS011;53633;49.932;10.884;2023-04-23T02:54:15;5.65;;;2.13;;
66721;SDS011;53633;49.932;10.884;2023-04-23T02:56:42;5.28;;;2.30;;
66721;SDS011;53633;49.932;10.884;2023-04-23T02:59:09;5.40;;;2.00;;
66721;SDS011;53633;49.932;10.884;2023-04-23T03:01:36;6.15;;;1.90;;
66721;SDS011;53633;49.932;10.884;2023-04-23T03:04:02;6.43;;;2.10;;
66721;SDS011;53633;49.932;10.884;2023-04-23T03:06:31;6.25;;;2.10;;
66721;SDS011;53633;49.932;10.884;2023-04-23T03:08:58;7.32;;;1.88;;
66721;SDS011;53633;49.932;10.884;2023-04-23T03:11:24;6.33;;;2.00;;
66721;SDS011;53633;49.932;10.884;2023-04-23T03:13:51;5.25;;;1.90;;
66721;SDS011;53633;49.932;10.884;2023-04-23T03:16:17;7.22;;;2.30;;
66721;SDS011;53633;49.932;10.884;2023-04-23T03:18:44;6.38;;;2.67;;
66721;SDS011;53633;49.932;10.884;2023-04-23T03:21:11;7.55;;;2.72;;
66721;SDS011;53633;49.932;10.884;2023-04-23T03:23:39;6.07;;;1.90;;
66721;SDS011;53633;49.932;10.884;2023-04-23T03:26:05;4.75;;;2.17;;
66721;SDS011;53633;49.932;10.884;2023-04-23T03:28:32;7.75;;;2.30;;
66721;SDS011;53633;49.932;10.884;2023-04-23T03:30:59;5.93;;;2.10;;
66721;SDS011;53633;49.932;10.884;2023-04-23T03:33:25;5.97;;;2.03;;
66721;SDS011;53633;49.932;10.884;2023-04-23T03:35:52;6.53;;;2.53;;
66721;SDS011;53633;49.932;10.884;2023-04-23T03:38:19;7.63;;;2.22;;
66721;SDS011;53633;49.932;10.884;2023-04-23T03:40:46;7.43;;;2.47;;
66721;SDS011;53633;49.932;10.884;2023-04-23T03:43:13;5.72;;;2.22;;
66721;SDS011;53633;49.932;10.884;2023-04-23T03:45:40;5.68;;;2.30;;
66721;SDS011;53633;49.932;10.884;2023-04-23T03:48:06;7.30;;;2.37;;
66721;SDS011;53633;49.932;10.884;2023-04-23T03:50:33;5.95;;;2.60;;
66721;SDS011;53633;49.932;10.884;2023-04-23T03:53:00;7.38;;;2.67;;
66721;SDS011;53633;49.932;10.884;2023-04-23T03:55:26;5.50;;;2.33;;
66721;SDS011;53633;49.932;10.884;2023-04-23T03:57:54;7.82;;;2.53;;
66721;SDS011;53633;49.932;10.884;2023-04-23T04:00:21;6.80;;;2.55;;
66721;SDS011;53633;49.932;10.884;2023-04-23T04:02:47;6.85;;;2.28;;
66721;SDS011;53633;49.932;10.884;2023-04-23T04:05:14;7.05;;;2.63;;
66721;SDS011;53633;49.932;10.884;2023-04-23T04:07:41;6.53;;;2.20;;
66721;SDS011;53633;49.932;10.884;2023-04-23T04:10:08;5.95;;;2.67;;
66721;SDS011;53633;49.932;10.884;2023-04-23T04:12:35;5.37;;;2.40;;
66721;SDS011;53633;49.932;10.884;2023-04-23T04:15:03;7.55;;;2.63;;
66721;SDS011;53633;49.932;10.884;2023-04-23T04:17:31;7.95;;;2.63;;
66721;SDS011;53633;49.932;10.884;2023-04-23T04:19:58;6.78;;;2.25;;
66721;SDS011;53633;49.932;10.884;2023-04-23T04:22:24;7.38;;;3.00;;
66721;SDS011;53633;49.932;10.884;2023-04-23T04:24:51;6.53;;;2.80;;
66721;SDS011;53633;49.932;10.884;2023-04-23T04:27:18;6.43;;;2.50;;
66721;SDS011;53633;49.932;10.884;2023-04-23T04:29:44;6.72;;;2.70;;
66721;SDS011;53633;49.932;10.884;2023-04-23T04:32:12;9.40;;;2.90;;
66721;SDS011;53633;49.932;10.884;2023-04-23T04:34:39;6.95;;;2.60;;
66721;SDS011;53633;49.932;10.884;2023-04-23T04:37:06;8.40;;;2.90;;
66721;SDS011;53633;49.932;10.884;2023-04-23T04:39:33;6.05;;;2.38;;
66721;SDS011;53633;49.932;10.884;2023-04-23T04:41:59;7.07;;;2.90;;
66721;SDS011;53633;49.932;10.884;2023-04-23T04:44:26;7.07;;;3.08;;
66721;SDS011;53633;49.932;10.884;2023-04-23T04:46:53;8.60;;;3.40;;
66721;SDS011;53633;49.932;10.884;2023-04-23T04:49:21;7.20;;;2.90;;
66721;SDS011;53633;49.932;10.884;2023-04-23T04:51:47;8.93;;;3.15;;
66721;SDS011;53633;49.932;10.884;2023-04-23T04:54:14;9.20;;;3.00;;
66721;SDS011;53633;49.932;10.884;2023-04-23T04:56:41;6.38;;;2.50;;
66721;SDS011;53633;49.932;10.884;2023-04-23T04:59:07;7.72;;;2.92;;
66721;SDS011;53633;49.932;10.884;2023-04-23T05:01:34;8.03;;;3.00;;
66721;SDS011;53633;49.932;10.884;2023-04-23T05:04:00;6.20;;;2.58;;
66721;SDS011;53633;49.932;10.884;2023-04-23T05:06:29;8.55;;;3.28;;
66721;SDS011;53633;49.932;10.884;2023-04-23T05:08:55;7.03;;;3.58;;
66721;SDS011;53633;49.932;10.884;2023-04-23T05:11:22;8.23;;;3.10;;
66721;SDS011;53633;49.932;10.884;2023-04-23T05:13:49;8.57;;;3.60;;
66721;SDS011;53633;49.932;10.884;2023-04-23T05:16:17;6.80;;;3.30;;
66721;SDS011;53633;49.932;10.884;2023-04-23T05:18:43;7.43;;;3.28;;
66721;SDS011;53633;49.932;10.884;2023-04-23T05:21:10;8.48;;;3.83;;
66721;SDS011;53633;49.932;10.884;2023-04-23T05:23:38;7.13;;;2.83;;
66721;SDS011;53633;49.932;10.884;2023-04-23T05:26:05;9.20;;;4.53;;
66721;SDS011;53633;49.932;10.884;2023-04-23T05:28:31;7.72;;;3.22;;
66721;SDS011;53633;49.932;10.884;2023-04-23T05:30:58;7.63;;;3.08;;
66721;SDS011;53633;49.932;10.884;2023-04-23T05:33:25;8.23;;;3.72;;
66721;SDS011;53633;49.932;10.884;2023-04-23T05:35:58;8.18;;;3.50;;
66721;SDS011;53633;49.932;10.884;2023-04-23T05:38:25;6.63;;;3.33;;
66721;SDS011;53633;49.932;10.884;2023-04-23T05:40:53;7.25;;;3.75;;
66721;SDS011;53633;49.932;10.884;2023-04-23T05:43:20;6.10;;;2.90;;
66721;SDS011;53633;49.932;10.884;2023-04-23T05:45:46;6.65;;;3.10;;
66721;SDS011;53633;49.932;10.884;2023-04-23T05:48:13;6.50;;;3.45;;
66721;SDS011;53633;49.932;10.884;2023-04-23T05:50:40;7.43;;;3.07;;
66721;SDS011;53633;49.932;10.884;2023-04-23T05:53:06;6.75;;;3.10;;
66721;SDS011;53633;49.932;10.884;2023-04-23T05:55:33;6.55;;;3.30;;
66721;SDS011;53633;49.932;10.884;2023-04-23T05:58:01;7.93;;;3.20;;
66721;SDS011;53633;49.932;10.884;2023-04-23T06:00:27;7.78;;;3.20;;
66721;SDS011;53633;49.932;10.884;2023-04-23T06:02:54;6.03;;;2.80;;
66721;SDS011;53633;49.932;10.884;2023-04-23T06:05:21;6.30;;;2.33;;
66721;SDS011;53633;49.932;10.884;2023-04-23T06:07:48;5.20;;;2.35;;
66721;SDS011;53633;49.932;10.884;2023-04-23T06:10:15;7.65;;;2.60;;
66721;SDS011;53633;49.932;10.884;2023-04-23T06:12:42;6.88;;;2.40;;
66721;SDS011;53633;49.932;10.884;2023-04-23T06:15:10;5.40;;;2.50;;
66721;SDS011;53633;49.932;10.884;2023-04-23T06:17:36;5.30;;;2.35;;
66721;SDS011;53633;49.932;10.884;2023-04-23T06:20:04;6.57;;;2.75;;
66721;SDS011;53633;49.932;10.884;2023-04-23T06:22:31;7.07;;;2.30;;
66721;SDS011;53633;49.932;10.884;2023-04-23T06:24:58;6.50;;;2.55;;
66721;SDS011;53633;49.932;10.884;2023-04-23T06:27:25;6.30;;;3.10;;
66721;SDS011;53633;49.932;10.884;2023-04-23T06:29:51;7.72;;;3.60;;
66721;SDS011;53633;49.932;10.884;2023-04-23T06:32:20;5.50;;;2.88;;
66721;SDS011;53633;49.932;10.884;2023-04-23T06:34:47;9.15;;;3.60;;
66721;SDS011;53633;49.932;10.884;2023-04-23T06:37:26;7.25;;;3.08;;
66721;SDS011;53633;49.932;10.884;2023-04-23T06:39:55;6.73;;;3.00;;
66721;SDS011;53633;49.932;10.884;2023-04-23T06:42:22;8.05;;;3.08;;
66721;SDS011;53633;49.932;10.884;2023-04-23T06:44:48;7.40;;;3.42;;
66721;SDS011;53633;49.932;10.884;2023-04-23T06:47:15;6.35;;;3.08;;
66721;SDS011;53633;49.932;10.884;2023-04-23T06:49:43;6.47;;;2.63;;
66721;SDS011;53633;49.932;10.884;2023-04-23T06:52:10;7.80;;;3.13;;
66721;SDS011;53633;49.932;10.884;2023-04-23T06:54:36;6.65;;;2.80;;
66721;SDS011;53633;49.932;10.884;2023-04-23T06:57:03;5.78;;;2.53;;
66721;SDS011;53633;49.932;10.884;2023-04-23T06:59:30;7.97;;;3.03;;
66721;SDS011;53633;49.932;10.884;2023-04-23T07:01:56;6.43;;;2.97;;
66721;SDS011;53633;49.932;10.884;2023-04-23T07:04:23;10.10;;;3.90;;
66721;SDS011;53633;49.932;10.884;2023-04-23T07:06:51;8.90;;;3.65;;
66721;SDS011;53633;49.932;10.884;2023-04-23T07:09:18;6.32;;;2.90;;
66721;SDS011;53633;49.932;10.884;2023-04-23T07:11:45;5.60;;;2.70;;
66721;SDS011;53633;49.932;10.884;2023-04-23T07:14:11;5.85;;;2.70;;
66721;SDS011;53633;49.932;10.884;2023-04-23T07:16:38;7.63;;;2.87;;
66721;SDS011;53633;49.932;10.884;2023-04-23T07:19:05;6.07;;;2.90;;
66721;SDS011;53633;49.932;10.884;2023-04-23T07:21:31;6.68;;;2.60;;
66721;SDS011;53633;49.932;10.884;2023-04-23T07:23:59;6.63;;;2.70;;
66721;SDS011;53633;49.932;10.884;2023-04-23T07:26:26;5.35;;;2.92;;
66721;SDS011;53633;49.932;10.884;2023-04-23T07:28:53;5.27;;;2.63;;
66721;SDS011;53633;49.932;10.884;2023-04-23T07:31:20;6.80;;;2.85;;
66721;SDS011;53633;49.932;10.884;2023-04-23T07:33:46;4.90;;;2.20;;
66721;SDS011;53633;49.932;10.884;2023-04-23T07:36:13;5.78;;;2.40;;
66721;SDS011;53633;49.932;10.884;2023-04-23T07:38:40;6.38;;;3.17;;
66721;SDS011;53633;49.932;10.884;2023-04-23T07:41:08;6.93;;;2.90;;
66721;SDS011;53633;49.932;10.884;2023-04-23T07:43:35;4.65;;;2.50;;
66721;SDS011;53633;49.932;10.884;2023-04-23T07:46:01;4.85;;;2.13;;
66721;SDS011;53633;49.932;10.884;2023-04-23T07:48:28;5.20;;;2.53;;
66721;SDS011;53633;49.932;10.884;2023-04-23T07:50:54;5.82;;;2.60;;
66721;SDS011;53633;49.932;10.884;2023-04-23T07:53:21;6.60;;;2.20;;
66721;SDS011;53633;49.932;10.884;2023-04-23T07:55:48;5.38;;;2.13;;
66721;SDS011;53633;49.932;10.884;2023-04-23T07:58:16;5.45;;;2.22;;
66721;SDS011;53633;49.932;10.884;2023-04-23T08:00:42;5.57;;;2.83;;
66721;SDS011;53633;49.932;10.884;2023-04-23T08:03:09;4.70;;;2.40;;
66721;SDS011;53633;49.932;10.884;2023-04-23T08:05:36;4.73;;;2.20;;
66721;SDS011;53633;49.932;10.884;2023-04-23T08:08:03;7.53;;;2.30;;
66721;SDS011;53633;49.932;10.884;2023-04-23T08:10:29;4.30;;;1.80;;
66721;SDS011;53633;49.932;10.884;2023-04-23T08:12:56;4.88;;;2.20;;
66721;SDS011;53633;49.932;10.884;2023-04-23T08:15:24;3.90;;;1.90;;
66721;SDS011;53633;49.932;10.884;2023-04-23T08:17:51;4.77;;;1.57;;
66721;SDS011;53633;49.932;10.884;2023-04-23T08:20:17;4.18;;;1.70;;
66721;SDS011;53633;49.932;10.884;2023-04-23T08:22:44;3.50;;;1.52;;
66721;SDS011;53633;49.932;10.884;2023-04-23T08:25:11;4.68;;;1.90;;
66721;SDS011;53633;49.932;10.884;2023-04-23T08:27:38;4.60;;;1.58;;
66721;SDS011;53633;49.932;10.884;2023-04-23T08:30:05;4.80;;;2.20;;
66721;SDS011;53633;49.932;10.884;2023-04-23T08:32:34;5.22;;;2.30;;
66721;SDS011;53633;49.932;10.884;2023-04-23T08:35:00;4.35;;;2.08;;
66721;SDS011;53633;49.932;10.884;2023-04-23T08:37:27;5.43;;;2.08;;
66721;SDS011;53633;49.932;10.884;2023-04-23T08:39:57;4.00;;;1.80;;
66721;SDS011;53633;49.932;10.884;2023-04-23T08:42:26;5.10;;;2.10;;
66721;SDS011;53633;49.932;10.884;2023-04-23T08:45:03;4.32;;;2.00;;
66721;SDS011;53633;49.932;10.884;2023-04-23T08:47:31;3.30;;;1.50;;
66721;SDS011;53633;49.932;10.884;2023-04-23T08:49:59;5.05;;;1.95;;
66721;SDS011;53633;49.932;10.884;2023-04-23T08:52:31;3.45;;;1.45;;
66721;SDS011;53633;49.932;10.884;2023-04-23T08:54:59;3.93;;;1.70;;
66721;SDS011;53633;49.932;10.884;2023-04-23T08:57:29;4.45;;;1.95;;
66721;SDS011;53633;49.932;10.884;2023-04-23T08:59:56;3.40;;;1.48;;
66721;SDS011;53633;49.932;10.884;2023-04-23T09:02:24;3.10;;;1.80;;
66721;SDS011;53633;49.932;10.884;2023-04-23T09:04:51;3.47;;;1.50;;
66721;SDS011;53633;49.932;10.884;2023-04-23T09:07:22;3.03;;;1.40;;
66721;SDS011;53633;49.932;10.884;2023-04-23T09:09:49;5.22;;;1.92;;
66721;SDS011;53633;49.932;10.884;2023-04-23T09:12:16;5.15;;;1.90;;
66721;SDS011;53633;49.932;10.884;2023-04-23T09:14:43;4.13;;;1.85;;
66721;SDS011;53633;49.932;10.884;2023-04-23T09:17:10;4.93;;;1.60;;
66721;SDS011;53633;49.932;10.884;2023-04-23T09:19:37;3.13;;;1.43;;
66721;SDS011;53633;49.932;10.884;2023-04-23T09:22:05;2.83;;;1.30;;
66721;SDS011;53633;49.932;10.884;2023-04-23T09:24:34;3.40;;;1.40;;
66721;SDS011;53633;49.932;10.884;2023-04-23T09:27:00;5.53;;;2.17;;
66721;SDS011;53633;49.932;10.884;2023-04-23T09:29:27;4.70;;;1.83;;
66721;SDS011;53633;49.932;10.884;2023-04-23T09:32:05;4.07;;;1.50;;
66721;SDS011;53633;49.932;10.884;2023-04-23T09:34:33;4.22;;;1.80;;
66721;SDS011;53633;49.932;10.884;2023-04-23T09:37:00;3.47;;;1.30;;
66721;SDS011;53633;49.932;10.884;2023-04-23T09:39:27;5.40;;;1.50;;
66721;SDS011;53633;49.932;10.884;2023-04-23T09:41:55;3.08;;;1.20;;
66721;SDS011;53633;49.932;10.884;2023-04-23T09:44:29;3.40;;;1.60;;
66721;SDS011;53633;49.932;10.884;2023-04-23T09:46:57;4.25;;;2.03;;
66721;SDS011;53633;49.932;10.884;2023-04-23T09:49:31;3.10;;;1.30;;
66721;SDS011;53633;49.932;10.884;2023-04-23T09:51:58;7.70;;;1.30;;
66721;SDS011;53633;49.932;10.884;2023-04-23T09:54:31;3.03;;;1.50;;
66721;SDS011;53633;49.932;10.884;2023-04-23T09:56:59;3.77;;;1.40;;
66721;SDS011;53633;49.932;10.884;2023-04-23T09:59:26;4.55;;;1.52;;
66721;SDS011;53633;49.932;10.884;2023-04-23T10:02:13;4.03;;;1.70;;
66721;SDS011;53633;49.932;10.884;2023-04-23T10:04:40;4.30;;;1.80;;
66721;SDS011;53633;49.932;10.884;2023-04-23T10:07:08;4.00;;;1.58;;
66721;SDS011;53633;49.932;10.884;2023-04-23T10:09:45;4.83;;;1.83;;
66721;SDS011;53633;49.932;10.884;2023-04-23T10:12:14;5.53;;;1.42;;
66721;SDS011;53633;49.932;10.884;2023-04-23T10:15:02;2.88;;;1.20;;
66721;SDS011;53633;49.932;10.884;2023-04-23T10:17:29;4.50;;;1.80;;
66721;SDS011;53633;49.932;10.884;2023-04-23T10:19:56;2.97;;;1.08;;
66721;SDS011;53633;49.932;10.884;2023-04-23T10:22:25;4.10;;;1.90;;
66721;SDS011;53633;49.932;10.884;2023-04-23T10:24:54;3.67;;;1.60;;
66721;SDS011;53633;49.932;10.884;2023-04-23T10:27:25;3.05;;;1.38;;
66721;SDS011;53633;49.932;10.884;2023-04-23T10:30:13;3.30;;;1.10;;
66721;SDS011;53633;49.932;10.884;2023-04-23T10:32:40;4.90;;;1.50;;
66721;SDS011;53633;49.932;10.884;2023-04-23T10:35:07;4.33;;;1.57;;
66721;SDS011;53633;49.932;10.884;2023-04-23T10:37:35;2.97;;;1.17;;
66721;SDS011;53633;49.932;10.884;2023-04-23T10:40:05;5.00;;;1.27;;
66721;SDS011;53633;49.932;10.884;2023-04-23T10:42:34;3.30;;;1.27;;
66721;SDS011;53633;49.932;10.884;2023-04-23T10:45:01;3.63;;;1.35;;
66721;SDS011;53633;49.932;10.884;2023-04-23T10:47:49;3.80;;;1.30;;
66721;SDS011;53633;49.932;10.884;2023-04-23T10:50:19;3.53;;;1.50;;
66721;SDS011;53633;49.932;10.884;2023-04-23T10:52:48;3.60;;;1.60;;
66721;SDS011;53633;49.932;10.884;2023-04-23T10:55:16;4.45;;;1.50;;
66721;SDS011;53633;49.932;10.884;2023-04-23T10:58:01;3.85;;;1.30;;
66721;SDS011;53633;49.932;10.884;2023-04-23T11:00:40;3.70;;;1.30;;
66721;SDS011;53633;49.932;10.884;2023-04-23T11:05:56;3.33;;;1.40;;
66721;SDS011;53633;49.932;10.884;2023-04-23T11:08:23;3.05;;;1.45;;
66721;SDS011;53633;49.932;10.884;2023-04-23T11:10:50;4.32;;;1.75;;
66721;SDS011;53633;49.932;10.884;2023-04-23T11:13:20;4.87;;;1.70;;
66721;SDS011;53633;49.932;10.884;2023-04-23T11:15:48;3.38;;;1.20;;
66721;SDS011;53633;49.932;10.884;2023-04-23T11:24:23;4.55;;;1.58;;
66721;SDS011;53633;49.932;10.884;2023-04-23T11:26:51;3.00;;;1.03;;
66721;SDS011;53633;49.932;10.884;2023-04-23T11:29:22;4.38;;;1.50;;
66721;SDS011;53633;49.932;10.884;2023-04-23T11:31:49;3.60;;;1.48;;
66721;SDS011;53633;49.932;10.884;2023-04-23T11:34:28;3.00;;;1.33;;
66721;SDS011;53633;49.932;10.884;2023-04-23T11:36:54;2.63;;;1.08;;
66721;SDS011;53633;49.932;10.884;2023-04-23T11:39:24;4.60;;;1.60;;
66721;SDS011;53633;49.932;10.884;2023-04-23T11:41:51;3.95;;;1.70;;
66721;SDS011;53633;49.932;10.884;2023-04-23T11:44:20;2.58;;;1.13;;
66721;SDS011;53633;49.932;10.884;2023-04-23T11:46:47;3.72;;;1.67;;
66721;SDS011;53633;49.932;10.884;2023-04-23T11:49:14;3.90;;;1.30;;
66721;SDS011;53633;49.932;10.884;2023-04-23T11:51:42;4.10;;;1.50;;
66721;SDS011;53633;49.932;10.884;2023-04-23T11:54:10;3.13;;;1.40;;
66721;SDS011;53633;49.932;10.884;2023-04-23T11:56:36;3.53;;;1.50;;
66721;SDS011;53633;49.932;10.884;2023-04-23T11:59:04;3.65;;;1.30;;
66721;SDS011;53633;49.932;10.884;2023-04-23T12:01:42;4.13;;;2.00;;
66721;SDS011;53633;49.932;10.884;2023-04-23T12:04:13;3.13;;;1.30;;
66721;SDS011;53633;49.932;10.884;2023-04-23T12:06:43;4.43;;;1.52;;
66721;SDS011;53633;49.932;10.884;2023-04-23T12:09:10;2.95;;;1.27;;
66721;SDS011;53633;49.932;10.884;2023-04-23T12:11:38;4.18;;;1.25;;
66721;SDS011;53633;49.932;10.884;2023-04-23T12:14:05;3.28;;;1.35;;
66721;SDS011;53633;49.932;10.884;2023-04-23T12:16:33;2.70;;;1.30;;
66721;SDS011;53633;49.932;10.884;2023-04-23T12:19:04;3.28;;;1.30;;
66721;SDS011;53633;49.932;10.884;2023-04-23T12:21:33;3.38;;;1.40;;
66721;SDS011;53633;49.932;10.884;2023-04-23T12:24:01;4.18;;;1.50;;
66721;SDS011;53633;49.932;10.884;2023-04-23T12:26:29;3.60;;;1.70;;
66721;SDS011;53633;49.932;10.884;2023-04-23T12:28:57;3.97;;;1.13;;
66721;SDS011;53633;49.932;10.884;2023-04-23T12:31:25;3.60;;;1.10;;
66721;SDS011;53633;49.932;10.884;2023-04-23T12:33:55;3.40;;;1.17;;
66721;SDS011;53633;49.932;10.884;2023-04-23T12:36:26;3.90;;;1.20;;
66721;SDS011;53633;49.932;10.884;2023-04-23T12:38:53;5.93;;;1.27;;
66721;SDS011;53633;49.932;10.884;2023-04-23T12:41:20;3.27;;;1.53;;
66721;SDS011;53633;49.932;10.884;2023-04-23T12:43:47;2.75;;;1.02;;
66721;SDS011;53633;49.932;10.884;2023-04-23T12:46:14;3.25;;;1.10;;
66721;SDS011;53633;49.932;10.884;2023-04-23T12:48:40;3.33;;;1.30;;
66721;SDS011;53633;49.932;10.884;2023-04-23T12:51:07;3.42;;;1.00;;
66721;SDS011;53633;49.932;10.884;2023-04-23T12:53:35;4.03;;;1.40;;
66721;SDS011;53633;49.932;10.884;2023-04-23T12:56:02;5.05;;;1.25;;
66721;SDS011;53633;49.932;10.884;2023-04-23T12:58:28;4.20;;;1.30;;
66721;SDS011;53633;49.932;10.884;2023-04-23T13:00:55;4.25;;;1.20;;
66721;SDS011;53633;49.932;10.884;2023-04-23T13:03:22;3.00;;;1.15;;
66721;SDS011;53633;49.932;10.884;2023-04-23T13:05:50;3.30;;;1.30;;
66721;SDS011;53633;49.932;10.884;2023-04-23T13:08:17;4.13;;;1.45;;
66721;SDS011;53633;49.932;10.884;2023-04-23T13:10:45;5.22;;;1.20;;
66721;SDS011;53633;49.932;10.884;2023-04-23T13:13:12;4.50;;;1.40;;
66721;SDS011;53633;49.932;10.884;2023-04-23T13:15:38;2.40;;;1.10;;
66721;SDS011;53633;49.932;10.884;2023-04-23T13:18:05;4.10;;;1.20;;
66721;SDS011;53633;49.932;10.884;2023-04-23T13:20:32;2.60;;;0.95;;
66721;SDS011;53633;49.932;10.884;2023-04-23T13:22:58;2.95;;;1.20;;
66721;SDS011;53633;49.932;10.884;2023-04-23T13:25:25;4.32;;;1.10;;
66721;SDS011;53633;49.932;10.884;2023-04-23T13:27:53;4.43;;;1.20;;
66721;SDS011;53633;49.932;10.884;2023-04-23T13:30:20;3.13;;;1.23;;
66721;SDS011;53633;49.932;10.884;2023-04-23T13:32:46;2.88;;;1.17;;
66721;SDS011;53633;49.932;10.884;2023-04-23T13:35:13;3.55;;;1.20;;
66721;SDS011;53633;49.932;10.884;2023-04-23T13:37:40;4.38;;;1.30;;
66721;SDS011;53633;49.932;10.884;2023-04-23T13:40:07;3.55;;;1.30;;
66721;SDS011;53633;49.932;10.884;2023-04-23T13:42:34;3.10;;;1.23;;
66721;SDS011;53633;49.932;10.884;2023-04-23T13:45:02;5.28;;;1.30;;
66721;SDS011;53633;49.932;10.884;2023-04-23T13:47:29;4.00;;;1.20;;
66721;SDS011;53633;49.932;10.884;2023-04-23T13:49:56;3.13;;;1.15;;
66721;SDS011;53633;49.932;10.884;2023-04-23T13:52:22;2.40;;;1.08;;
66721;SDS011;53633;49.932;10.884;2023-04-23T13:54:49;3.00;;;1.10;;
66721;SDS011;53633;49.932;10.884;2023-04-23T13:57:15;3.60;;;1.10;;
66721;SDS011;53633;49.932;10.884;2023-04-23T13:59:42;4.85;;;1.27;;
66721;SDS011;53633;49.932;10.884;2023-04-23T14:02:10;4.47;;;1.25;;
66721;SDS011;53633;49.932;10.884;2023-04-23T14:04:37;3.00;;;1.27;;
66721;SDS011;53633;49.932;10.884;2023-04-23T14:07:04;2.57;;;0.93;;
66721;SDS011;53633;49.932;10.884;2023-04-23T14:09:30;2.63;;;1.23;;
66721;SDS011;53633;49.932;10.884;2023-04-23T14:11:57;3.47;;;1.38;;
66721;SDS011;53633;49.932;10.884;2023-04-23T14:14:24;3.75;;;1.10;;
66721;SDS011;53633;49.932;10.884;2023-04-23T14:16:51;3.25;;;1.10;;
66721;SDS011;53633;49.932;10.884;2023-04-23T14:19:19;2.47;;;0.90;;
66721;SDS011;53633;49.932;10.884;2023-04-23T14:21:45;2.83;;;1.13;;
66721;SDS011;53633;49.932;10.884;2023-04-23T14:24:16;2.47;;;1.00;;
66721;SDS011;53633;49.932;10.884;2023-04-23T14:26:43;2.30;;;0.90;;
66721;SDS011;53633;49.932;10.884;2023-04-23T14:29:23;3.17;;;0.95;;
66721;SDS011;53633;49.932;10.884;2023-04-23T14:31:54;4.07;;;1.40;;
66721;SDS011;53633;49.932;10.884;2023-04-23T14:34:22;4.22;;;1.30;;
66721;SDS011;53633;49.932;10.884;2023-04-23T14:36:48;3.05;;;1.17;;
66721;SDS011;53633;49.932;10.884;2023-04-23T14:39:15;2.92;;;1.10;;
66721;SDS011;53633;49.932;10.884;2023-04-23T14:41:42;2.58;;;0.90;;
66721;SDS011;53633;49.932;10.884;2023-04-23T14:44:09;3.20;;;1.17;;
66721;SDS011;53633;49.932;10.884;2023-04-23T14:46:36;2.83;;;1.00;;